createdAt,value
2019-03-30T00:00:36.596Z,102025.61
2019-03-30T00:03:06.185Z,102017.14
2019-03-30T00:05:35.804Z,102017.02
2019-03-30T00:08:05.398Z,102009.91
2019-03-30T00:10:35.019Z,102010.98
2019-03-30T00:13:04.615Z,102011.53
2019-03-30T00:15:34.229Z,102016.22
2019-03-30T00:18:03.827Z,102014.19
2019-03-30T00:20:33.447Z,102004.78
2019-03-30T00:23:03.047Z,102009.09
2019-03-30T00:25:32.657Z,102005.15
2019-03-30T00:28:02.246Z,102001.19
2019-03-30T00:30:31.790Z,102001.19
2019-03-30T00:33:01.238Z,102003.00
2019-03-30T00:35:30.777Z,101994.61
2019-03-30T00:38:00.366Z,101992.40
2019-03-30T00:40:29.990Z,101989.77
2019-03-30T00:42:59.591Z,101991.91
2019-03-30T00:45:29.247Z,101987.53
2019-03-30T00:47:58.772Z,101983.94
2019-03-30T00:50:28.387Z,101983.48
2019-03-30T00:52:57.978Z,101986.45
2019-03-30T00:55:27.525Z,101987.31
2019-03-30T00:57:57.119Z,101985.04
2019-03-30T01:00:26.655Z,101979.64
2019-03-30T01:02:56.162Z,101980.04
2019-03-30T01:05:25.710Z,101974.19
2019-03-30T01:07:55.312Z,101967.02
2019-03-30T01:10:24.937Z,101968.66
2019-03-30T01:12:54.553Z,101969.52
2019-03-30T01:15:24.158Z,101962.31
2019-03-30T01:17:53.751Z,101963.59
2019-03-30T01:20:23.374Z,101960.84
2019-03-30T01:22:52.962Z,101958.60
2019-03-30T01:25:22.577Z,101949.69
2019-03-30T01:27:52.172Z,101945.20
2019-03-30T01:30:23.265Z,101949.98
2019-03-30T01:32:53.114Z,101942.02
2019-03-30T01:35:22.729Z,101946.33
2019-03-30T01:37:52.361Z,101943.24
2019-03-30T01:40:21.985Z,101941.37
2019-03-30T01:42:51.575Z,101935.21
2019-03-30T01:45:21.212Z,101937.72
2019-03-30T01:47:50.806Z,101936.33
2019-03-30T01:50:20.430Z,101935.37
2019-03-30T01:52:50.028Z,101929.23
2019-03-30T01:55:19.721Z,101928.23
2019-03-30T01:57:49.317Z,101934.82
2019-03-30T02:00:19.337Z,101929.85
2019-03-30T02:02:48.937Z,101928.02
2019-03-30T02:05:18.482Z,101930.58
2019-03-30T02:07:48.000Z,101922.55
2019-03-30T02:10:29.755Z,101920.28
2019-03-30T02:12:59.267Z,101914.06
2019-03-30T02:15:28.881Z,101914.46
2019-03-30T02:17:58.494Z,101908.60
2019-03-30T02:20:38.058Z,101916.00
2019-03-30T02:23:07.737Z,101910.22
2019-03-30T02:25:37.356Z,101905.70
2019-03-30T02:28:07.369Z,101909.52
2019-03-30T02:30:37.504Z,101910.38
2019-03-30T02:33:07.113Z,101905.94
2019-03-30T02:35:36.656Z,101907.62
2019-03-30T02:38:06.299Z,101904.03
2019-03-30T02:40:35.932Z,101901.76
2019-03-30T02:43:05.557Z,101891.92
2019-03-30T02:45:35.192Z,101894.03
2019-03-30T02:48:04.868Z,101890.02
2019-03-30T02:50:48.525Z,101892.94
2019-03-30T02:53:05.870Z,101891.98
2019-03-30T02:55:35.566Z,101889.61
2019-03-30T02:58:05.192Z,101894.84
2019-03-30T03:00:34.809Z,101896.48
2019-03-30T03:03:04.417Z,101893.32
2019-03-30T03:05:34.044Z,101892.83
2019-03-30T03:08:03.636Z,101889.17
2019-03-30T03:10:33.255Z,101887.03
2019-03-30T03:13:02.860Z,101884.77
2019-03-30T03:15:32.587Z,101871.94
2019-03-30T03:18:02.111Z,101876.31
2019-03-30T03:20:31.721Z,101871.77
2019-03-30T03:23:01.368Z,101871.28
2019-03-30T03:25:31.020Z,101876.39
2019-03-30T03:28:00.625Z,101871.50
2019-03-30T03:30:30.167Z,101871.36
2019-03-30T03:32:59.787Z,101867.28
2019-03-30T03:35:29.376Z,101867.99
2019-03-30T03:37:58.925Z,101872.22
2019-03-30T03:40:28.520Z,101864.20
2019-03-30T03:42:58.471Z,101863.24
2019-03-30T03:45:28.094Z,101857.48
2019-03-30T03:47:57.731Z,101857.84
2019-03-30T03:50:57.666Z,101851.56
2019-03-30T03:53:27.268Z,101854.12
2019-03-30T03:55:59.213Z,101854.41
2019-03-30T03:58:31.443Z,101864.42
2019-03-30T04:01:02.738Z,101852.88
2019-03-30T04:03:33.979Z,101852.34
2019-03-30T04:06:05.960Z,101851.39
2019-03-30T04:08:36.181Z,101857.81
2019-03-30T04:11:07.375Z,101847.16
2019-03-30T04:13:38.677Z,101852.00
2019-03-30T04:16:08.709Z,101847.98
2019-03-30T04:18:38.324Z,101845.64
2019-03-30T04:21:07.871Z,101845.50
2019-03-30T04:23:37.314Z,101843.08
2019-03-30T04:26:06.946Z,101841.66
2019-03-30T04:28:36.459Z,101844.14
2019-03-30T04:31:06.087Z,101846.20
2019-03-30T04:33:35.605Z,101846.98
2019-03-30T04:36:05.228Z,101839.84
2019-03-30T04:38:34.756Z,101844.95
2019-03-30T04:41:04.384Z,101850.16
2019-03-30T04:43:33.937Z,101842.60
2019-03-30T04:46:03.542Z,101844.20
2019-03-30T04:48:33.170Z,101845.86
2019-03-30T04:51:02.858Z,101850.15
2019-03-30T04:53:32.474Z,101842.94
2019-03-30T04:56:01.997Z,101833.21
2019-03-30T04:58:31.617Z,101838.81
2019-03-30T05:01:01.229Z,101826.86
2019-03-30T05:03:30.843Z,101819.25
2019-03-30T05:06:00.453Z,101817.80
2019-03-30T05:08:30.080Z,101823.05
2019-03-30T05:10:59.699Z,101813.71
2019-03-30T05:13:29.238Z,101815.30
2019-03-30T05:15:58.845Z,101818.34
2019-03-30T05:18:28.466Z,101812.53
2019-03-30T05:20:58.131Z,101808.20
2019-03-30T05:23:28.462Z,101805.08
2019-03-30T05:25:58.085Z,101798.37
2019-03-30T05:28:27.694Z,101801.42
2019-03-30T05:30:57.290Z,101802.23
2019-03-30T05:33:26.906Z,101790.30
2019-03-30T05:35:56.515Z,101796.44
2019-03-30T05:38:26.066Z,101794.56
2019-03-30T05:40:55.657Z,101793.67
2019-03-30T05:43:25.207Z,101792.78
2019-03-30T05:45:54.830Z,101785.73
2019-03-30T05:48:24.461Z,101783.59
2019-03-30T05:50:54.073Z,101780.13
2019-03-30T05:53:23.643Z,101785.38
2019-03-30T05:55:53.248Z,101784.41
2019-03-30T05:58:22.879Z,101787.39
2019-03-30T06:00:52.486Z,101786.00
2019-03-30T06:03:22.049Z,101785.58
2019-03-30T06:05:51.658Z,101786.58
2019-03-30T06:08:21.318Z,101782.29
2019-03-30T06:10:50.922Z,101789.73
2019-03-30T06:13:20.468Z,101782.83
2019-03-30T06:15:49.985Z,101782.91
2019-03-30T06:18:19.617Z,101786.21
2019-03-30T06:20:49.222Z,101779.80
2019-03-30T06:23:18.844Z,101780.44
2019-03-30T06:25:48.373Z,101785.95
2019-03-30T06:28:17.930Z,101782.23
2019-03-30T06:30:47.538Z,101785.08
2019-03-30T06:33:17.164Z,101784.86
2019-03-30T06:35:46.771Z,101782.84
2019-03-30T06:38:16.405Z,101776.89
2019-03-30T06:40:46.013Z,101788.10
2019-03-30T06:43:15.639Z,101782.07
2019-03-30T06:45:45.229Z,101782.84
2019-03-30T06:48:14.894Z,101776.45
2019-03-30T06:50:44.523Z,101780.68
2019-03-30T06:53:14.171Z,101784.33
2019-03-30T06:55:43.773Z,101785.50
2019-03-30T06:58:13.343Z,101789.07
2019-03-30T07:00:43.132Z,101785.08
2019-03-30T07:03:12.768Z,101788.64
2019-03-30T07:05:43.739Z,101788.19
2019-03-30T07:08:15.327Z,101786.91
2019-03-30T07:10:46.584Z,101786.58
2019-03-30T07:13:16.676Z,101782.92
2019-03-30T07:15:50.816Z,101775.48
2019-03-30T07:18:20.732Z,101789.87
2019-03-30T07:20:50.333Z,101777.67
2019-03-30T07:23:19.981Z,101775.99
2019-03-30T07:25:49.585Z,101783.09
2019-03-30T07:28:19.210Z,101780.91
2019-03-30T07:30:48.809Z,101781.47
2019-03-30T07:33:18.414Z,101778.98
2019-03-30T07:35:48.029Z,101774.65
2019-03-30T07:38:17.667Z,101780.45
2019-03-30T07:40:47.274Z,101783.94
2019-03-30T07:43:16.915Z,101782.56
2019-03-30T07:45:46.469Z,101781.80
2019-03-30T07:48:16.111Z,101769.91
2019-03-30T07:50:45.801Z,101774.81
2019-03-30T07:53:26.220Z,101773.69
2019-03-30T07:55:46.768Z,101766.38
2019-03-30T07:58:16.406Z,101764.69
2019-03-30T08:00:46.276Z,101769.91
2019-03-30T08:03:15.902Z,101765.49
2019-03-30T08:05:45.440Z,101764.59
2019-03-30T08:08:15.077Z,101762.32
2019-03-30T08:10:45.186Z,101759.59
2019-03-30T08:13:14.826Z,101766.11
2019-03-30T08:15:44.437Z,101766.50
2019-03-30T08:18:14.048Z,101761.50
2019-03-30T08:20:43.682Z,101758.74
2019-03-30T08:23:13.406Z,101754.66
2019-03-30T08:25:43.047Z,101749.30
2019-03-30T08:28:12.497Z,101750.08
2019-03-30T08:30:42.141Z,101749.02
2019-03-30T08:33:11.743Z,101750.62
2019-03-30T08:35:41.388Z,101755.76
2019-03-30T08:38:11.298Z,101748.05
2019-03-30T08:40:40.843Z,101751.34
2019-03-30T08:43:10.450Z,101744.05
2019-03-30T08:45:40.123Z,101745.22
2019-03-30T08:48:09.716Z,101745.48
2019-03-30T08:50:39.350Z,101737.35
2019-03-30T08:53:08.958Z,101740.70
2019-03-30T08:55:38.583Z,101732.50
2019-03-30T08:58:08.120Z,101730.08
2019-03-30T09:00:39.681Z,101729.41
2019-03-30T09:03:09.266Z,101729.13
2019-03-30T09:05:39.003Z,101721.34
2019-03-30T09:08:08.718Z,101726.38
2019-03-30T09:10:38.377Z,101722.59
2019-03-30T09:13:07.993Z,101719.24
2019-03-30T09:15:37.630Z,101720.76
2019-03-30T09:18:07.454Z,101716.92
2019-03-30T09:20:37.086Z,101718.88
2019-03-30T09:23:06.689Z,101709.31
2019-03-30T09:25:36.477Z,101713.48
2019-03-30T09:28:06.093Z,101702.06
2019-03-30T09:30:35.723Z,101697.72
2019-03-30T09:33:05.335Z,101692.51
2019-03-30T09:35:34.980Z,101685.45
2019-03-30T09:38:04.604Z,101676.17
2019-03-30T09:40:34.178Z,101684.22
2019-03-30T09:43:03.786Z,101679.36
2019-03-30T09:45:33.459Z,101672.73
2019-03-30T09:48:03.135Z,101669.19
2019-03-30T09:50:32.767Z,101664.73
2019-03-30T09:53:02.386Z,101660.72
2019-03-30T09:55:32.022Z,101664.70
2019-03-30T09:58:01.647Z,101652.64
2019-03-30T10:00:31.287Z,101669.08
2019-03-30T10:03:00.898Z,101657.00
2019-03-30T10:05:30.527Z,101652.95
2019-03-30T10:08:02.270Z,101654.20
2019-03-30T10:10:31.913Z,101643.37
2019-03-30T10:13:01.445Z,101644.59
2019-03-30T10:15:31.078Z,101643.19
2019-03-30T10:18:00.690Z,101639.95
2019-03-30T10:20:30.325Z,101634.92
2019-03-30T10:22:59.942Z,101636.14
2019-03-30T10:25:29.589Z,101632.39
2019-03-30T10:27:59.138Z,101632.23
2019-03-30T10:30:28.780Z,101633.06
2019-03-30T10:32:58.384Z,101630.79
2019-03-30T10:35:28.014Z,101633.39
2019-03-30T10:37:57.636Z,101628.44
2019-03-30T10:40:27.276Z,101626.13
2019-03-30T10:42:56.888Z,101615.35
2019-03-30T10:45:26.565Z,101619.69
2019-03-30T10:47:56.227Z,101612.80
2019-03-30T10:50:25.883Z,101619.29
2019-03-30T10:52:55.491Z,101610.25
2019-03-30T10:55:25.119Z,101598.55
2019-03-30T10:57:54.734Z,101604.34
2019-03-30T11:00:39.620Z,101596.16
2019-03-30T11:03:09.225Z,101591.50
2019-03-30T11:05:38.856Z,101594.48
2019-03-30T11:08:08.464Z,101586.15
2019-03-30T11:10:38.089Z,101588.66
2019-03-30T11:13:07.703Z,101578.20
2019-03-30T11:15:37.343Z,101578.44
2019-03-30T11:18:06.952Z,101573.73
2019-03-30T11:20:36.498Z,101568.59
2019-03-30T11:23:06.141Z,101569.44
2019-03-30T11:25:35.660Z,101565.13
2019-03-30T11:28:05.275Z,101568.13
2019-03-30T11:30:34.905Z,101551.45
2019-03-30T11:33:04.515Z,101558.39
2019-03-30T11:35:34.074Z,101552.64
2019-03-30T11:38:03.688Z,101542.03
2019-03-30T11:40:33.390Z,101533.60
2019-03-30T11:43:02.991Z,101544.47
2019-03-30T11:45:32.651Z,101540.99
2019-03-30T11:48:02.364Z,101530.08
2019-03-30T11:50:32.017Z,101533.91
2019-03-30T11:53:01.570Z,101527.50
2019-03-30T11:55:31.097Z,101515.91
2019-03-30T11:58:00.747Z,101512.30
2019-03-30T12:00:30.375Z,101509.09
2019-03-30T12:03:00.010Z,101509.21
2019-03-30T12:05:29.622Z,101503.06
2019-03-30T12:07:59.256Z,101508.13
2019-03-30T12:10:28.876Z,101498.89
2019-03-30T12:12:58.538Z,101496.58
2019-03-30T12:15:28.150Z,101493.98
2019-03-30T12:17:57.694Z,101483.92
2019-03-30T12:20:27.314Z,101481.09
2019-03-30T12:22:56.939Z,101473.87
2019-03-30T12:25:35.383Z,101473.79
2019-03-30T12:27:57.839Z,101474.62
2019-03-30T12:30:27.598Z,101472.84
2019-03-30T12:32:57.175Z,101468.21
2019-03-30T12:35:26.784Z,101471.09
2019-03-30T12:37:56.422Z,101461.44
2019-03-30T12:40:26.026Z,101461.09
2019-03-30T12:42:55.672Z,101457.66
2019-03-30T12:45:25.306Z,101455.66
2019-03-30T12:47:54.943Z,101458.47
2019-03-30T12:50:24.556Z,101455.83
2019-03-30T12:52:54.100Z,101443.37
2019-03-30T12:55:23.711Z,101440.90
2019-03-30T12:57:53.376Z,101436.13
2019-03-30T13:00:23.066Z,101425.97
2019-03-30T13:02:52.623Z,101416.61
2019-03-30T13:05:22.233Z,101424.63
2019-03-30T13:07:51.875Z,101422.25
2019-03-30T13:10:21.487Z,101417.70
2019-03-30T13:12:51.129Z,101415.96
2019-03-30T13:15:20.834Z,101408.03
2019-03-30T13:17:50.465Z,101408.09
2019-03-30T13:20:20.005Z,101404.97
2019-03-30T13:22:51.345Z,101402.72
2019-03-30T13:25:20.999Z,101405.65
2019-03-30T13:27:53.267Z,101402.27
2019-03-30T13:30:22.564Z,101394.19
2019-03-30T13:32:53.549Z,101396.95
2019-03-30T13:35:23.292Z,101389.14
2019-03-30T13:37:52.933Z,101383.09
2019-03-30T13:40:22.560Z,101383.91
2019-03-30T13:42:52.199Z,101387.22
2019-03-30T13:45:21.839Z,101372.56
2019-03-30T13:47:51.467Z,101376.91
2019-03-30T13:50:21.075Z,101372.52
2019-03-30T13:52:50.704Z,101375.02
2019-03-30T13:55:20.337Z,101369.53
2019-03-30T13:57:49.885Z,101369.02
2019-03-30T14:00:20.104Z,101360.70
2019-03-30T14:02:49.734Z,101355.80
2019-03-30T14:05:19.336Z,101347.16
2019-03-30T14:07:48.975Z,101347.88
2019-03-30T14:10:18.699Z,101339.34
2019-03-30T14:12:48.345Z,101337.78
2019-03-30T14:15:17.960Z,101337.78
2019-03-30T14:17:47.583Z,101343.17
2019-03-30T14:20:17.195Z,101332.58
2019-03-30T14:22:46.828Z,101333.49
2019-03-30T14:25:16.433Z,101325.77
2019-03-30T14:27:46.073Z,101323.55
2019-03-30T14:30:16.387Z,101328.03
2019-03-30T14:32:46.012Z,101319.35
2019-03-30T14:35:15.630Z,101323.12
2019-03-30T14:37:45.296Z,101314.83
2019-03-30T14:40:15.047Z,101305.19
2019-03-30T14:42:44.592Z,101310.55
2019-03-30T14:45:14.226Z,101305.36
2019-03-30T14:47:43.861Z,101304.64
2019-03-30T14:50:13.676Z,101299.22
2019-03-30T14:52:43.302Z,101291.63
2019-03-30T14:55:12.923Z,101303.62
2019-03-30T14:57:42.475Z,101304.55
2019-03-30T15:00:12.659Z,101303.98
2019-03-30T15:02:42.351Z,101299.41
2019-03-30T15:05:12.776Z,101293.03
2019-03-30T15:07:42.408Z,101286.41
2019-03-30T15:10:12.625Z,101294.94
2019-03-30T15:12:42.257Z,101289.22
2019-03-30T15:15:12.883Z,101285.92
2019-03-30T15:17:42.446Z,101284.64
2019-03-30T15:20:12.356Z,101282.34
2019-03-30T15:22:41.993Z,101276.05
2019-03-30T15:25:12.063Z,101273.38
2019-03-30T15:27:41.630Z,101277.25
2019-03-30T15:30:11.805Z,101267.52
2019-03-30T15:32:41.493Z,101268.78
2019-03-30T15:35:11.258Z,101264.05
2019-03-30T15:37:40.864Z,101263.61
2019-03-30T15:40:11.444Z,101262.03
2019-03-30T15:42:41.055Z,101262.80
2019-03-30T15:45:11.366Z,101259.00
2019-03-30T15:47:41.010Z,101254.75
2019-03-30T15:50:11.244Z,101249.63
2019-03-30T15:52:40.850Z,101248.52
2019-03-30T15:55:11.145Z,101242.59
2019-03-30T15:57:40.723Z,101237.97
2019-03-30T16:00:12.719Z,101240.53
2019-03-30T16:02:42.337Z,101240.72
2019-03-30T16:05:15.142Z,101239.00
2019-03-30T16:07:43.464Z,101231.30
2019-03-30T16:10:14.135Z,101237.36
2019-03-30T16:12:43.775Z,101241.20
2019-03-30T16:15:13.616Z,101232.20
2019-03-30T16:17:43.228Z,101234.27
2019-03-30T16:20:12.950Z,101227.99
2019-03-30T16:22:42.557Z,101225.29
2019-03-30T16:25:12.207Z,101226.31
2019-03-30T16:27:41.814Z,101228.59
2019-03-30T16:30:12.394Z,101222.86
2019-03-30T16:32:42.026Z,101222.28
2019-03-30T16:35:11.675Z,101225.18
2019-03-30T16:37:45.776Z,101222.75
2019-03-30T16:40:16.030Z,101223.84
2019-03-30T16:42:45.639Z,101228.27
2019-03-30T16:45:17.466Z,101224.98
2019-03-30T16:47:47.105Z,101219.41
2019-03-30T16:50:17.269Z,101221.30
2019-03-30T16:52:47.042Z,101213.58
2019-03-30T16:55:16.731Z,101214.81
2019-03-30T16:57:46.411Z,101210.58
2019-03-30T17:00:16.251Z,101217.11
2019-03-30T17:02:45.926Z,101207.55
2019-03-30T17:05:15.654Z,101212.28
2019-03-30T17:07:45.268Z,101208.48
2019-03-30T17:10:14.906Z,101203.91
2019-03-30T17:16:08.154Z,101214.38
2019-03-30T17:18:37.852Z,101206.42
2019-03-30T17:21:07.657Z,101208.05
2019-03-30T17:23:37.174Z,101206.13
2019-03-30T17:26:08.091Z,101200.63
2019-03-30T17:28:38.122Z,101199.60
2019-03-30T17:31:08.086Z,101198.66
2019-03-30T17:33:38.272Z,101198.18
2019-03-30T17:36:08.550Z,101198.09
2019-03-30T17:38:38.310Z,101199.95
2019-03-30T17:41:12.247Z,101202.10
2019-03-30T17:43:39.611Z,101206.94
2019-03-30T17:46:09.405Z,101194.29
2019-03-30T17:48:39.104Z,101203.14
2019-03-30T17:51:08.726Z,101193.64
2019-03-30T17:53:39.549Z,101200.67
2019-03-30T17:56:09.466Z,101197.05
2019-03-30T17:58:39.069Z,101194.28
2019-03-30T18:01:15.953Z,101193.16
2019-03-30T18:03:45.892Z,101188.97
2019-03-30T18:06:15.440Z,101196.86
2019-03-30T18:08:47.428Z,101199.41
2019-03-30T18:11:17.170Z,101192.13
2019-03-30T18:13:46.990Z,101199.12
2019-03-30T18:16:16.495Z,101196.69
2019-03-30T18:18:46.109Z,101205.86
2019-03-30T18:21:16.236Z,101203.81
2019-03-30T18:23:47.485Z,101198.22
2019-03-30T18:26:17.428Z,101200.13
2019-03-30T18:28:47.029Z,101206.13
2019-03-30T18:31:18.028Z,101206.33
2019-03-30T18:33:48.176Z,101212.27
2019-03-30T18:36:18.662Z,101211.02
2019-03-30T18:38:49.636Z,101200.02
2019-03-30T18:41:19.494Z,101205.95
2019-03-30T18:44:06.621Z,101206.52
2019-03-30T18:46:42.789Z,101204.81
2019-03-30T18:49:12.754Z,101211.16
2019-03-30T18:51:44.723Z,101213.88
2019-03-30T18:54:15.296Z,101220.16
2019-03-30T18:56:44.986Z,101218.45
2019-03-30T18:59:14.584Z,101219.38
2019-03-30T19:01:59.061Z,101217.20
2019-03-30T19:04:28.721Z,101215.53
2019-03-30T19:06:58.666Z,101219.18
2019-03-30T19:09:28.583Z,101223.73
2019-03-30T19:11:58.461Z,101225.97
2019-03-30T19:14:28.095Z,101221.13
2019-03-30T19:17:09.727Z,101222.50
2019-03-30T19:19:39.402Z,101228.38
2019-03-30T19:22:09.177Z,101229.41
2019-03-30T19:24:38.980Z,101221.92
2019-03-30T19:27:09.328Z,101219.77
2019-03-30T19:29:38.954Z,101218.55
2019-03-30T19:32:08.648Z,101227.94
2019-03-30T19:34:38.243Z,101241.80
2019-03-30T19:37:07.783Z,101245.42
2019-03-30T19:39:37.399Z,101243.27
2019-03-30T19:42:07.025Z,101236.68
2019-03-30T19:44:36.571Z,101245.16
2019-03-30T19:47:06.203Z,101235.39
2019-03-30T19:49:35.806Z,101232.75
2019-03-30T19:52:05.897Z,101235.48
2019-03-30T19:54:35.531Z,101238.23
2019-03-30T19:57:05.163Z,101240.49
2019-03-30T19:59:35.038Z,101240.58
2019-03-30T20:02:05.100Z,101243.73
2019-03-30T20:04:34.712Z,101250.00
2019-03-30T20:07:04.398Z,101243.35
2019-03-30T20:09:34.007Z,101249.22
2019-03-30T20:12:03.682Z,101249.72
2019-03-30T20:14:33.226Z,101247.98
2019-03-30T20:17:02.932Z,101253.80
2019-03-30T20:19:32.541Z,101256.97
2019-03-30T20:22:02.169Z,101261.92
2019-03-30T20:24:31.763Z,101259.30
2019-03-30T20:27:01.399Z,101263.80
2019-03-30T20:29:30.990Z,101266.53
2019-03-30T20:32:00.639Z,101262.12
2019-03-30T20:34:30.160Z,101259.48
2019-03-30T20:36:59.780Z,101259.51
2019-03-30T20:39:29.383Z,101255.99
2019-03-30T20:41:58.936Z,101259.59
2019-03-30T20:44:28.449Z,101260.08
2019-03-30T20:46:58.098Z,101260.10
2019-03-30T20:49:27.630Z,101257.02
2019-03-30T20:51:57.262Z,101257.92
2019-03-30T20:54:26.789Z,101257.94
2019-03-30T20:56:56.410Z,101261.95
2019-03-30T20:59:39.359Z,101256.66
2019-03-30T21:01:57.278Z,101258.89
2019-03-30T21:04:26.799Z,101254.47
2019-03-30T21:06:56.426Z,101256.70
2019-03-30T21:09:25.957Z,101258.05
2019-03-30T21:11:55.425Z,101256.72
2019-03-30T21:14:25.051Z,101254.05
2019-03-30T21:16:54.600Z,101253.64
2019-03-30T21:19:24.133Z,101250.52
2019-03-30T21:21:53.844Z,101251.44
2019-03-30T21:24:23.444Z,101246.11
2019-03-30T21:26:52.990Z,101243.44
2019-03-30T21:29:22.609Z,101251.45
2019-03-30T21:31:52.244Z,101247.91
2019-03-30T21:34:21.848Z,101247.92
2019-03-30T21:36:51.401Z,101248.80
2019-03-30T21:39:20.935Z,101248.34
2019-03-30T21:41:50.561Z,101245.27
2019-03-30T21:44:22.138Z,101248.41
2019-03-30T21:46:51.554Z,101243.54
2019-03-30T21:49:21.162Z,101247.56
2019-03-30T21:51:50.707Z,101251.58
2019-03-30T21:54:20.237Z,101249.84
2019-03-30T21:56:49.859Z,101244.98
2019-03-30T21:59:19.459Z,101252.55
2019-03-30T22:01:49.093Z,101252.56
2019-03-30T22:04:18.636Z,101255.24
2019-03-30T22:06:48.267Z,101259.25
2019-03-30T22:09:17.871Z,101252.62
2019-03-30T22:11:47.416Z,101249.52
2019-03-30T22:14:17.026Z,101254.44
2019-03-30T22:16:46.581Z,101257.57
2019-03-30T22:19:16.090Z,101259.78
2019-03-30T22:21:45.720Z,101264.25
2019-03-30T22:24:15.248Z,101270.04
2019-03-30T22:26:44.868Z,101269.59
2019-03-30T22:29:14.465Z,101265.18
2019-03-30T22:31:43.997Z,101270.55
2019-03-30T22:34:13.547Z,101265.67
2019-03-30T22:36:43.063Z,101274.13
2019-03-30T22:39:12.614Z,101263.47
2019-03-30T22:41:42.230Z,101264.38
2019-03-30T22:44:11.847Z,101260.84
2019-03-30T22:46:41.468Z,101265.28
2019-03-30T22:49:11.093Z,101264.86
2019-03-30T22:51:40.701Z,101264.84
2019-03-30T22:54:10.323Z,101267.53
2019-03-30T22:56:39.928Z,101262.20
2019-03-30T22:59:09.566Z,101267.54
2019-03-30T23:01:39.166Z,101267.52
2019-03-30T23:04:08.793Z,101265.27
2019-03-30T23:06:38.409Z,101267.48
2019-03-30T23:09:11.260Z,101268.37
2019-03-30T23:11:39.472Z,101268.80
2019-03-30T23:14:09.021Z,101266.57
2019-03-30T23:16:38.546Z,101263.47
2019-03-30T23:19:08.180Z,101264.33
2019-03-30T23:21:37.779Z,101264.77
2019-03-30T23:24:07.399Z,101270.07
2019-03-30T23:26:37.011Z,101270.09
2019-03-30T23:29:06.629Z,101267.83
2019-03-30T23:31:36.232Z,101267.84
2019-03-30T23:34:05.854Z,101260.72
2019-03-30T23:36:35.543Z,101267.81
2019-03-30T23:39:07.736Z,101269.58
2019-03-30T23:41:37.348Z,101269.12
2019-03-30T23:44:06.995Z,101258.91
2019-03-30T23:46:36.622Z,101266.88
2019-03-30T23:49:06.284Z,101265.12
2019-03-30T23:51:35.892Z,101271.30
2019-03-30T23:54:05.531Z,101267.30
2019-03-30T23:56:35.132Z,101262.88
2019-03-30T23:59:04.763Z,101262.41
